createdAt,value
2023-02-03T00:01:46.569Z,85.22
2023-02-03T00:04:13.325Z,85.63
2023-02-03T00:06:40.197Z,85.18
2023-02-03T00:09:06.560Z,85.79
2023-02-03T00:11:33.927Z,85.49
2023-02-03T00:14:00.300Z,85.78
2023-02-03T00:16:26.714Z,85.29
2023-02-03T00:18:53.101Z,85.48
2023-02-03T00:21:19.879Z,85.64
2023-02-03T00:23:46.299Z,85.75
2023-02-03T00:26:15.544Z,85.98
2023-02-03T00:28:43.384Z,85.23
2023-02-03T00:31:22.533Z,86.09
2023-02-03T00:33:54.799Z,85.86
2023-02-03T00:36:21.306Z,85.35
2023-02-03T00:38:48.973Z,85.45
2023-02-03T00:41:16.308Z,85.31
2023-02-03T00:43:43.231Z,85.76
2023-02-03T00:46:09.727Z,85.72
2023-02-03T00:48:36.123Z,85.61
2023-02-03T00:51:02.459Z,85.59
2023-02-03T00:53:28.787Z,85.62
2023-02-03T00:55:55.132Z,85.22
2023-02-03T00:58:22.034Z,85.77
2023-02-03T01:00:48.431Z,85.63
2023-02-03T01:03:16.138Z,85.65
2023-02-03T01:05:42.470Z,85.88
2023-02-03T01:08:08.823Z,85.79
2023-02-03T01:10:37.968Z,85.94
2023-02-03T01:13:04.315Z,85.75
2023-02-03T01:15:30.758Z,85.19
2023-02-03T01:17:57.489Z,85.05
2023-02-03T01:20:24.252Z,85.60
2023-02-03T01:22:50.791Z,85.58
2023-02-03T01:25:17.222Z,85.34
2023-02-03T01:27:43.560Z,85.50
2023-02-03T01:30:10.871Z,85.67
2023-02-03T01:32:37.219Z,84.89
2023-02-03T01:35:04.533Z,84.92
2023-02-03T01:37:30.909Z,84.65
2023-02-03T01:39:57.670Z,84.12
2023-02-03T01:42:24.094Z,84.71
2023-02-03T01:44:52.058Z,84.33
2023-02-03T01:47:28.081Z,84.13
2023-02-03T01:50:00.215Z,84.43
2023-02-03T01:52:28.030Z,84.64
2023-02-03T01:54:56.685Z,84.21
2023-02-03T01:57:29.513Z,84.10
2023-02-03T01:59:59.052Z,83.74
2023-02-03T02:02:27.650Z,83.85
2023-02-03T02:05:03.200Z,83.20
2023-02-03T02:07:31.233Z,84.14
2023-02-03T02:09:57.613Z,83.69
2023-02-03T02:12:23.980Z,83.78
2023-02-03T02:14:50.729Z,83.63
2023-02-03T02:17:40.295Z,83.91
2023-02-03T02:20:07.248Z,83.84
2023-02-03T02:22:58.102Z,84.54
2023-02-03T02:25:49.606Z,84.15
2023-02-03T02:28:31.481Z,83.79
2023-02-03T02:31:17.808Z,83.78
2023-02-03T02:33:59.421Z,83.67
2023-02-03T02:36:41.903Z,83.69
2023-02-03T02:39:22.886Z,83.48
2023-02-03T02:41:56.498Z,83.49
2023-02-03T02:44:32.332Z,83.17
2023-02-03T02:47:22.787Z,83.30
2023-02-03T02:50:03.230Z,83.57
2023-02-03T02:52:34.201Z,82.81
2023-02-03T02:55:07.566Z,83.75
2023-02-03T02:57:36.904Z,83.26
2023-02-03T03:00:04.967Z,82.91
2023-02-03T03:02:35.856Z,83.31
2023-02-03T03:05:08.473Z,83.62
2023-02-03T03:07:50.236Z,83.79
2023-02-03T03:10:24.104Z,83.33
2023-02-03T03:12:56.923Z,83.61
2023-02-03T03:15:28.190Z,83.57
2023-02-03T03:18:14.387Z,83.77
2023-02-03T03:20:44.121Z,83.11
2023-02-03T03:23:20.801Z,82.98
2023-02-03T03:25:51.925Z,83.13
2023-02-03T03:28:28.280Z,82.84
2023-02-03T03:30:55.011Z,82.73
2023-02-03T03:33:22.597Z,83.21
2023-02-03T03:36:08.940Z,82.71
2023-02-03T03:38:38.822Z,82.77
2023-02-03T03:41:15.283Z,82.76
2023-02-03T03:43:44.904Z,82.86
2023-02-03T03:46:16.434Z,82.36
2023-02-03T03:48:50.905Z,82.17
2023-02-03T03:51:24.410Z,81.96
2023-02-03T03:53:52.699Z,82.47
2023-02-03T03:56:46.476Z,82.46
2023-02-03T03:59:16.069Z,82.04
2023-02-03T04:01:43.061Z,82.04
2023-02-03T04:04:11.120Z,82.52
2023-02-03T04:06:39.459Z,81.70
2023-02-03T04:09:05.936Z,81.76
2023-02-03T04:11:50.563Z,82.73
2023-02-03T04:14:16.932Z,82.39
2023-02-03T04:16:43.409Z,81.92
2023-02-03T04:19:09.765Z,82.49
2023-02-03T04:21:36.773Z,82.41
2023-02-03T04:24:03.307Z,82.28
2023-02-03T04:26:29.780Z,82.20
2023-02-03T04:28:56.116Z,82.08
2023-02-03T04:31:22.507Z,82.07
2023-02-03T04:33:48.919Z,81.44
2023-02-03T04:36:15.259Z,81.63
2023-02-03T04:38:41.594Z,81.79
2023-02-03T04:41:07.920Z,82.51
2023-02-03T04:43:34.241Z,81.88
2023-02-03T04:46:01.095Z,81.82
2023-02-03T04:48:27.844Z,82.23
2023-02-03T04:50:54.167Z,82.07
2023-02-03T04:53:20.495Z,81.68
2023-02-03T04:55:48.179Z,81.85
2023-02-03T04:58:14.887Z,81.67
2023-02-03T05:00:41.391Z,81.19
2023-02-03T05:03:07.839Z,81.38
2023-02-03T05:05:34.200Z,81.45
2023-02-03T05:08:00.546Z,81.36
2023-02-03T05:10:27.415Z,81.40
2023-02-03T05:12:53.901Z,81.75
2023-02-03T05:15:20.231Z,81.96
2023-02-03T05:17:46.599Z,81.94
2023-02-03T05:20:13.073Z,81.51
2023-02-03T05:22:39.522Z,81.80
2023-02-03T05:25:06.297Z,81.28
2023-02-03T05:27:32.637Z,81.50
2023-02-03T05:29:58.967Z,81.52
2023-02-03T05:32:25.718Z,81.79
2023-02-03T05:34:52.052Z,81.89
2023-02-03T05:37:18.395Z,81.31
2023-02-03T05:39:44.707Z,80.72
2023-02-03T05:42:11.047Z,80.86
2023-02-03T05:44:37.360Z,81.06
2023-02-03T05:47:03.683Z,81.01
2023-02-03T05:49:30.069Z,81.01
2023-02-03T05:51:56.961Z,80.65
2023-02-03T05:54:24.010Z,80.52
2023-02-03T05:56:50.386Z,80.62
2023-02-03T05:59:16.927Z,80.55
2023-02-03T06:01:43.311Z,80.96
2023-02-03T06:04:09.856Z,80.84
2023-02-03T06:06:36.713Z,80.68
2023-02-03T06:09:08.268Z,80.60
2023-02-03T06:11:35.862Z,80.84
2023-02-03T06:14:03.744Z,80.39
2023-02-03T06:16:30.271Z,81.42
2023-02-03T06:19:00.777Z,79.91
2023-02-03T06:21:28.060Z,80.42
2023-02-03T06:23:55.813Z,80.95
2023-02-03T06:26:22.310Z,81.11
2023-02-03T06:28:48.687Z,80.51
2023-02-03T06:31:15.204Z,80.90
2023-02-03T06:33:41.615Z,80.59
2023-02-03T06:36:08.258Z,80.55
2023-02-03T06:38:34.616Z,80.75
2023-02-03T06:41:01.157Z,81.16
2023-02-03T06:43:27.488Z,80.74
2023-02-03T06:45:53.866Z,81.61
2023-02-03T06:48:20.267Z,81.36
2023-02-03T06:50:48.619Z,81.37
2023-02-03T06:53:15.401Z,81.52
2023-02-03T06:55:41.860Z,82.20
2023-02-03T06:58:08.476Z,82.34
2023-02-03T07:00:34.940Z,82.76
2023-02-03T07:03:02.110Z,82.58
2023-02-03T07:05:28.834Z,82.18
2023-02-03T07:07:55.294Z,82.57
2023-02-03T07:10:21.697Z,82.21
2023-02-03T07:12:48.106Z,82.25
2023-02-03T07:15:14.480Z,82.12
2023-02-03T07:17:40.839Z,82.04
2023-02-03T07:20:07.662Z,81.71
2023-02-03T07:22:34.289Z,80.91
2023-02-03T07:25:00.651Z,80.85
2023-02-03T07:27:27.963Z,80.51
2023-02-03T07:29:54.335Z,81.00
2023-02-03T07:32:20.664Z,81.00
2023-02-03T07:34:47.002Z,80.71
2023-02-03T07:37:13.321Z,80.40
2023-02-03T07:39:39.655Z,80.62
2023-02-03T07:42:06.101Z,80.76
2023-02-03T07:44:36.511Z,80.40
2023-02-03T07:47:02.879Z,80.39
2023-02-03T07:49:29.202Z,80.72
2023-02-03T07:51:56.467Z,80.74
2023-02-03T07:54:22.794Z,80.39
2023-02-03T07:56:49.123Z,80.77
2023-02-03T07:59:17.206Z,80.74
2023-02-03T08:01:43.583Z,80.73
2023-02-03T08:04:12.011Z,81.17
2023-02-03T08:06:38.347Z,80.60
2023-02-03T08:09:04.753Z,80.30
2023-02-03T08:11:32.440Z,80.66
2023-02-03T08:13:58.807Z,80.60
2023-02-03T08:16:25.228Z,80.99
2023-02-03T08:18:51.633Z,80.83
2023-02-03T08:21:18.033Z,80.96
2023-02-03T08:23:44.347Z,80.67
2023-02-03T08:26:10.714Z,80.45
2023-02-03T08:28:37.041Z,81.17
2023-02-03T08:31:09.912Z,80.62
2023-02-03T08:33:36.596Z,80.49
2023-02-03T08:36:05.624Z,80.64
2023-02-03T08:38:32.267Z,81.31
2023-02-03T08:40:58.889Z,80.36
2023-02-03T08:43:25.245Z,80.30
2023-02-03T08:45:51.702Z,80.53
2023-02-03T08:48:18.404Z,80.22
2023-02-03T08:50:51.763Z,80.35
2023-02-03T08:53:18.657Z,80.68
2023-02-03T08:55:45.002Z,80.82
2023-02-03T08:58:11.429Z,80.64
2023-02-03T09:00:38.435Z,80.31
2023-02-03T09:03:04.814Z,80.63
2023-02-03T09:05:32.011Z,80.28
2023-02-03T09:07:58.397Z,80.31
2023-02-03T09:10:24.866Z,79.87
2023-02-03T09:12:51.317Z,80.19
2023-02-03T09:15:17.842Z,80.66
2023-02-03T09:17:44.249Z,80.20
2023-02-03T09:20:13.174Z,80.27
2023-02-03T09:22:39.550Z,79.90
2023-02-03T09:25:07.169Z,80.34
2023-02-03T09:27:33.492Z,80.57
2023-02-03T09:29:59.833Z,80.63
2023-02-03T09:32:26.206Z,80.59
2023-02-03T09:34:52.523Z,80.21
2023-02-03T09:37:18.960Z,80.23
2023-02-03T09:39:45.302Z,80.20
2023-02-03T09:42:25.693Z,80.20
2023-02-03T09:45:04.497Z,80.43
2023-02-03T09:47:36.409Z,80.74
2023-02-03T09:50:06.471Z,80.13
2023-02-03T09:52:39.636Z,80.51
2023-02-03T09:55:39.349Z,80.56
2023-02-03T09:58:13.350Z,80.84
2023-02-03T10:00:51.061Z,80.76
2023-02-03T10:03:54.038Z,80.50
2023-02-03T10:06:36.130Z,80.21
2023-02-03T10:09:21.449Z,80.51
2023-02-03T10:12:21.969Z,80.44
2023-02-03T10:15:16.643Z,80.67
2023-02-03T10:18:00.459Z,80.71
2023-02-03T10:20:40.024Z,81.06
2023-02-03T10:23:18.521Z,81.18
2023-02-03T10:25:57.093Z,80.75
2023-02-03T10:28:29.443Z,80.73
2023-02-03T10:31:08.570Z,80.72
2023-02-03T10:33:35.229Z,80.49
2023-02-03T10:36:15.006Z,80.93
2023-02-03T10:38:59.391Z,80.99
2023-02-03T10:41:28.684Z,80.84
2023-02-03T10:43:57.360Z,81.10
2023-02-03T10:46:34.464Z,81.46
2023-02-03T10:49:00.972Z,81.14
2023-02-03T10:51:37.433Z,81.20
2023-02-03T10:54:03.912Z,81.44
2023-02-03T10:56:36.383Z,81.57
2023-02-03T10:59:03.762Z,81.44
2023-02-03T11:01:46.944Z,80.97
2023-02-03T11:04:33.412Z,81.67
2023-02-03T11:07:02.848Z,81.70
2023-02-03T11:09:33.556Z,81.24
2023-02-03T11:12:11.919Z,81.70
2023-02-03T11:14:41.418Z,81.61
2023-02-03T11:17:29.607Z,81.42
2023-02-03T11:20:16.851Z,81.49
2023-02-03T11:22:44.601Z,81.66
2023-02-03T11:25:32.304Z,81.94
2023-02-03T11:28:05.653Z,81.45
2023-02-03T11:30:32.811Z,81.05
2023-02-03T11:33:02.983Z,81.12
2023-02-03T11:35:31.603Z,81.36
2023-02-03T11:38:00.603Z,81.00
2023-02-03T11:40:30.648Z,81.35
2023-02-03T11:42:57.126Z,81.14
2023-02-03T11:45:29.241Z,81.03
2023-02-03T11:48:03.084Z,80.83
2023-02-03T11:50:38.732Z,81.35
2023-02-03T11:53:15.287Z,80.90
2023-02-03T11:55:48.114Z,81.28
2023-02-03T11:58:31.911Z,81.13
2023-02-03T12:01:12.388Z,81.87
2023-02-03T12:04:00.428Z,81.62
2023-02-03T12:06:52.973Z,81.30
2023-02-03T12:09:20.684Z,81.54
2023-02-03T12:12:07.458Z,81.83
2023-02-03T12:14:49.003Z,81.71
2023-02-03T12:17:26.909Z,81.37
2023-02-03T12:20:13.985Z,81.46
2023-02-03T12:22:53.042Z,81.60
2023-02-03T12:25:34.535Z,81.83
2023-02-03T12:28:07.167Z,81.88
2023-02-03T12:30:47.445Z,81.73
2023-02-03T12:33:25.446Z,81.70
2023-02-03T12:36:03.286Z,82.38
2023-02-03T12:38:48.887Z,81.77
2023-02-03T12:41:41.833Z,81.72
2023-02-03T12:44:40.448Z,81.60
2023-02-03T12:47:40.029Z,81.55
2023-02-03T12:50:23.735Z,80.93
2023-02-03T12:52:59.852Z,80.70
2023-02-03T12:55:44.418Z,80.78
2023-02-03T12:58:28.849Z,80.46
2023-02-03T13:01:03.982Z,80.14
2023-02-03T13:03:42.814Z,80.31
2023-02-03T13:06:22.117Z,79.79
2023-02-03T13:09:00.022Z,80.26
2023-02-03T13:11:34.993Z,79.91
2023-02-03T13:14:31.566Z,79.50
2023-02-03T13:17:06.586Z,79.84
2023-02-03T13:19:49.993Z,80.12
2023-02-03T13:22:17.428Z,79.93
2023-02-03T13:25:09.245Z,79.96
2023-02-03T13:27:48.847Z,79.89
2023-02-03T13:30:33.552Z,80.22
2023-02-03T13:33:20.143Z,80.33
2023-02-03T13:36:20.383Z,80.33
2023-02-03T13:38:55.920Z,79.87
2023-02-03T13:41:34.490Z,80.71
2023-02-03T13:44:01.917Z,80.63
2023-02-03T13:46:34.886Z,80.81
2023-02-03T13:49:04.729Z,81.81
2023-02-03T13:51:35.781Z,82.11
2023-02-03T13:54:07.081Z,81.93
2023-02-03T13:56:34.391Z,83.43
2023-02-03T13:59:05.136Z,84.38
2023-02-03T14:01:38.330Z,84.74
2023-02-03T14:04:09.543Z,85.50
2023-02-03T14:06:36.036Z,86.63
2023-02-03T14:09:19.405Z,86.52
2023-02-03T14:11:47.000Z,86.97
2023-02-03T14:14:33.587Z,86.67
2023-02-03T14:17:00.003Z,86.31
2023-02-03T14:19:29.261Z,86.79
2023-02-03T14:22:07.910Z,86.45
2023-02-03T14:24:38.989Z,85.63
2023-02-03T14:27:16.259Z,85.99
2023-02-03T14:29:42.976Z,85.55
2023-02-03T14:32:11.459Z,85.50
2023-02-03T14:34:40.945Z,86.25
2023-02-03T14:37:16.872Z,86.07
2023-02-03T14:40:01.385Z,85.99
2023-02-03T14:42:39.034Z,86.60
2023-02-03T14:45:31.575Z,86.33
2023-02-03T14:48:11.146Z,86.34
2023-02-03T14:51:04.020Z,86.35
2023-02-03T14:53:39.496Z,85.95
2023-02-03T14:56:56.374Z,86.89
2023-02-03T14:59:25.996Z,85.93
2023-02-03T15:01:52.611Z,85.74
2023-02-03T15:04:19.015Z,86.02
2023-02-03T15:06:48.184Z,85.49
2023-02-03T15:09:39.787Z,84.63
2023-02-03T15:12:20.044Z,85.11
2023-02-03T15:14:46.381Z,84.76
2023-02-03T15:17:34.344Z,84.46
2023-02-03T15:20:00.759Z,84.54
2023-02-03T15:22:29.627Z,84.40
2023-02-03T15:24:59.398Z,84.46
2023-02-03T15:27:30.774Z,83.72
2023-02-03T15:29:59.022Z,83.76
2023-02-03T15:32:33.197Z,83.71
2023-02-03T15:35:04.820Z,82.98
2023-02-03T15:37:42.927Z,83.83
2023-02-03T15:40:18.758Z,84.32
2023-02-03T15:43:21.871Z,83.81
2023-02-03T15:46:00.024Z,83.96
2023-02-03T15:48:29.364Z,83.55
2023-02-03T15:51:04.743Z,83.67
2023-02-03T15:53:46.814Z,83.66
2023-02-03T15:56:36.165Z,83.10
2023-02-03T15:59:02.917Z,82.45
2023-02-03T16:01:30.516Z,82.35
2023-02-03T16:03:58.392Z,81.56
2023-02-03T16:06:36.894Z,81.36
2023-02-03T16:09:06.758Z,82.11
2023-02-03T16:11:37.118Z,81.69
2023-02-03T16:14:06.928Z,81.93
2023-02-03T16:17:03.955Z,81.11
2023-02-03T16:19:34.113Z,81.31
2023-02-03T16:22:00.579Z,80.79
2023-02-03T16:24:32.977Z,80.96
2023-02-03T16:27:27.315Z,81.03
2023-02-03T16:30:13.941Z,81.17
2023-02-03T16:32:59.197Z,79.58
2023-02-03T16:35:43.935Z,80.20
2023-02-03T16:38:36.407Z,79.62
2023-02-03T16:41:24.309Z,79.81
2023-02-03T16:44:09.305Z,80.28
2023-02-03T16:46:55.540Z,79.50
2023-02-03T16:49:40.262Z,79.44
2023-02-03T16:52:08.766Z,79.68
2023-02-03T16:54:35.095Z,79.68
2023-02-03T16:57:01.458Z,79.72
2023-02-03T16:59:27.898Z,79.27
2023-02-03T17:01:54.321Z,78.66
2023-02-03T17:04:20.727Z,78.64
2023-02-03T17:06:51.399Z,78.80
2023-02-03T17:09:23.352Z,78.80
2023-02-03T17:11:50.028Z,78.54
2023-02-03T17:14:16.940Z,78.26
2023-02-03T17:16:43.529Z,78.53
2023-02-03T17:19:11.430Z,78.43
2023-02-03T17:21:39.180Z,78.01
2023-02-03T17:24:06.230Z,78.63
2023-02-03T17:26:34.115Z,77.55
2023-02-03T17:29:03.079Z,78.60
2023-02-03T17:31:30.289Z,77.91
2023-02-03T17:33:57.637Z,77.79
2023-02-03T17:36:24.467Z,77.36
2023-02-03T17:55:24.034Z,80.33
2023-02-03T17:57:50.887Z,81.09
2023-02-03T18:00:17.527Z,81.55
2023-02-03T18:02:44.170Z,81.34
2023-02-03T18:05:11.131Z,82.28
2023-02-03T18:07:37.500Z,82.28
2023-02-03T18:10:04.404Z,82.58
2023-02-03T18:12:30.784Z,82.87
2023-02-03T18:14:57.891Z,82.67
2023-02-03T18:17:24.292Z,83.10
2023-02-03T18:19:55.807Z,83.57
2023-02-03T18:22:22.878Z,83.19
2023-02-03T18:24:52.409Z,83.22
2023-02-03T18:27:19.458Z,82.51
2023-02-03T18:29:47.011Z,82.59
2023-02-03T18:32:15.556Z,82.72
2023-02-03T18:34:42.113Z,82.63
2023-02-03T18:37:08.897Z,82.52
2023-02-03T18:39:35.509Z,82.91
2023-02-03T18:42:01.989Z,82.65
2023-02-03T18:44:28.423Z,82.85
2023-02-03T18:46:54.918Z,82.60
2023-02-03T18:49:21.374Z,82.75
2023-02-03T18:51:47.742Z,82.59
2023-02-03T18:54:14.091Z,82.99
2023-02-03T18:56:40.505Z,82.47
2023-02-03T18:59:10.127Z,83.06
2023-02-03T19:01:38.602Z,83.01
2023-02-03T19:04:05.064Z,83.06
2023-02-03T19:06:33.104Z,83.04
2023-02-03T19:09:00.421Z,83.34
2023-02-03T19:11:26.915Z,83.01
2023-02-03T19:13:53.454Z,83.33
2023-02-03T19:16:20.276Z,82.72
2023-02-03T19:18:47.234Z,83.54
2023-02-03T19:21:14.067Z,83.00
2023-02-03T19:23:41.665Z,83.04
2023-02-03T19:26:09.809Z,83.28
2023-02-03T19:28:36.222Z,82.94
2023-02-03T19:31:08.833Z,83.10
2023-02-03T19:33:36.725Z,82.82
2023-02-03T19:36:04.455Z,82.35
2023-02-03T19:38:30.839Z,82.56
2023-02-03T19:40:57.192Z,82.56
2023-02-03T19:43:24.566Z,82.02
2023-02-03T19:45:51.558Z,81.72
2023-02-03T19:48:18.213Z,81.58
2023-02-03T19:50:46.860Z,81.62
2023-02-03T19:53:14.707Z,81.14
2023-02-03T19:55:45.534Z,81.04
2023-02-03T19:58:14.217Z,80.73
2023-02-03T20:00:42.261Z,80.99
2023-02-03T20:03:08.951Z,80.70
2023-02-03T20:05:36.194Z,80.63
2023-02-03T20:08:02.996Z,81.41
2023-02-03T20:10:29.708Z,81.02
2023-02-03T20:12:56.242Z,80.88
2023-02-03T20:15:22.707Z,80.93
2023-02-03T20:17:49.134Z,81.03
2023-02-03T20:20:27.092Z,80.78
2023-02-03T20:22:53.512Z,80.61
2023-02-03T20:25:20.050Z,80.60
2023-02-03T20:27:46.491Z,80.49
2023-02-03T20:30:13.391Z,81.16
2023-02-03T20:32:39.924Z,80.62
2023-02-03T20:35:07.008Z,80.41
2023-02-03T20:37:35.869Z,79.61
2023-02-03T20:40:06.097Z,79.67
2023-02-03T20:42:33.772Z,79.08
2023-02-03T20:45:00.154Z,79.22
2023-02-03T20:47:26.543Z,79.21
2023-02-03T20:49:53.578Z,79.77
2023-02-03T20:52:20.899Z,78.71
2023-02-03T20:54:47.862Z,78.35
2023-02-03T20:57:19.091Z,78.25
2023-02-03T20:59:46.209Z,78.19
2023-02-03T21:02:57.510Z,78.73
2023-02-03T21:05:27.268Z,78.00
2023-02-03T21:07:54.070Z,78.44
2023-02-03T21:10:24.794Z,78.43
2023-02-03T21:12:52.177Z,78.48
2023-02-03T21:15:29.830Z,78.41
2023-02-03T21:17:56.252Z,77.93
2023-02-03T21:20:28.927Z,78.03
2023-02-03T21:22:56.494Z,78.62
2023-02-03T21:25:27.035Z,78.35
2023-02-03T21:27:54.405Z,78.13
2023-02-03T21:30:30.811Z,78.29
2023-02-03T21:32:58.905Z,78.83
2023-02-03T21:35:31.202Z,78.90
2023-02-03T21:38:02.546Z,78.75
2023-02-03T21:40:34.207Z,78.87
2023-02-03T21:43:02.955Z,78.99
2023-02-03T21:45:42.050Z,79.47
2023-02-03T21:48:22.299Z,79.42
2023-02-03T21:50:48.647Z,79.74
2023-02-03T21:53:15.389Z,80.08
2023-02-03T21:55:42.476Z,79.66
2023-02-03T21:58:11.763Z,79.88
2023-02-03T22:00:47.786Z,79.89
2023-02-03T22:03:46.313Z,79.92
2023-02-03T22:06:12.674Z,80.03
2023-02-03T22:08:47.822Z,79.89
2023-02-03T22:11:15.236Z,79.36
2023-02-03T22:13:42.617Z,79.40
2023-02-03T22:16:09.505Z,79.37
2023-02-03T22:18:36.209Z,79.49
2023-02-03T22:21:03.246Z,78.94
2023-02-03T22:23:29.748Z,78.91
2023-02-03T22:25:56.119Z,78.59
2023-02-03T22:28:22.592Z,79.22
2023-02-03T22:30:49.353Z,78.86
2023-02-03T22:33:15.789Z,79.24
2023-02-03T22:35:42.274Z,79.41
2023-02-03T22:38:08.598Z,79.24
2023-02-03T22:40:35.120Z,79.39
2023-02-03T22:43:01.556Z,79.29
2023-02-03T22:45:27.922Z,79.29
2023-02-03T22:47:56.354Z,79.32
2023-02-03T22:50:34.739Z,79.38
2023-02-03T22:53:03.967Z,79.24
2023-02-03T22:55:31.198Z,79.41
2023-02-03T22:57:58.358Z,78.99
2023-02-03T23:00:25.353Z,78.83
2023-02-03T23:02:51.813Z,79.14
2023-02-03T23:05:18.841Z,78.68
2023-02-03T23:07:45.993Z,78.31
2023-02-03T23:10:17.345Z,78.26
2023-02-03T23:12:44.186Z,78.64
2023-02-03T23:15:10.672Z,78.34
2023-02-03T23:17:37.005Z,78.08
2023-02-03T23:20:05.375Z,78.31
2023-02-03T23:22:31.794Z,78.35
2023-02-03T23:24:59.879Z,78.86
2023-02-03T23:27:26.696Z,78.07
2023-02-03T23:29:53.061Z,78.59
2023-02-03T23:32:19.377Z,78.50
2023-02-03T23:35:04.041Z,78.78
2023-02-03T23:37:30.369Z,78.71
2023-02-03T23:39:56.738Z,78.70
2023-02-03T23:42:23.210Z,79.06
2023-02-03T23:44:49.558Z,79.14
2023-02-03T23:47:16.139Z,78.79
2023-02-03T23:49:42.463Z,78.62
2023-02-03T23:52:08.831Z,78.64
2023-02-03T23:54:35.421Z,79.34
2023-02-03T23:57:01.832Z,79.53
2023-02-03T23:59:28.182Z,79.37
